Amstetten, Austria

9:20 AM CET on February 13, 2016 (GMT +0100)
DBSolutions, Winklarn, Austria | | Change Station
CLOSE
Current Station
Personal Weather Station
Location: Winklarn, NIEDERöSTERREICH
Elevation: 1050 ft
Nearby Weather Stations

Elev 1050 ft 48.09 °N, 14.85 °E | Updated 3 seconds ago

Mostly Cloudy
Mostly Cloudy
33.6 °F
Feels Like 34 °F
N
0.0
Wind Variable Wind from West
Gusts 0.0 mph

Today
High -- | Low -- °F
--% Chance of Precip.
Yesterday
High -- | Low -- °F
Precip. -- in
Pressure 29.42 in
Visibility 6.2 miles
Clouds Few 1400 ft
Scattered Clouds 2800 ft
Mostly Cloudy 6000 ft
Windchill 34 °F
Dew Point 29 °F
Humidity 83%
Rainfall 0.00 in
Snow Depth Not available.
7:11 AM 5:18 PM
Waxing Crescent, 28% visible
METAR LOWL 130750Z 31002KT 9999 FEW014 SCT028 BKN060 00/M01 Q0996 R08/19//95 NOSIG
Pressure 29.42 in
Visibility 6.2 miles
Clouds Few 1400 ft
Scattered Clouds 2800 ft
Mostly Cloudy 6000 ft
Windchill 34 °F
Dew Point 29 °F
Humidity 83%
Rainfall 0.00 in
Snow Depth Not available.
7:11 AM 5:18 PM
Waxing Crescent, 28% visible
METAR LOWL 130750Z 31002KT 9999 FEW014 SCT028 BKN060 00/M01 Q0996 R08/19//95 NOSIG

10-Day Weather Forecast

Almanac

Astronomy

Feb. 13, 2016 Rise Set
Actual Time
Civil Twilight
Nautical Twilight
Astronomical Twilight
Moon
Length of Visible Light
Length of Day
Tomorrow will be .
, % of the Moon is Illuminated

Today's Extremes

Country Highs Country Lows

Community

WunderPhotos

Upload Photos

1,892,536 photos uploaded!

WunderBlog® & News

Nearby

Air Quality

  Air Quality AQ Index Pollutant
Not available.

Snow Depth

Station Depth Elevation

Earthquake Activity

City Distance Mag. Time & Date
Minimum magnitude displayed is 2.5.

Coastal Water Temperatures

Place Temperature

Stations

Nearby Weather Stations

Station Location Temp. Windchill Dew Point Humidity Wind Precip. Elev Updated Type